Time,TemperatureF,DewpointF,PressureIn,WindDirection,WindDirectionDegrees,WindSpeedMPH,WindSpeedGustMPH,Humidity,HourlyPrecipIn,Conditions,Clouds,dailyrainin,SoftwareType,DateUTC
2014-07-10 00:01:00,63.6,60.6,29.85,ESE,117,0.0,0.0,90,0.00,,,0.00,WeatherCatV1.24B11,2014-07-10 04:01:00,
2014-07-10 00:02:00,63.5,60.5,29.85,ESE,117,0.0,0.0,90,0.00,,,0.00,WeatherCatV1.24B11,2014-07-10 04:02:00,
2014-07-10 00:03:00,63.5,60.5,29.85,ESE,117,0.0,0.0,90,0.00,,,0.00,WeatherCatV1.24B11,2014-07-10 04:03:00,
2014-07-10 00:04:00,63.4,60.4,29.86,ESE,117,0.0,0.0,90,0.00,,,0.00,WeatherCatV1.24B11,2014-07-10 04:04:00,
2014-07-10 00:05:00,63.3,60.3,29.86,ESE,117,0.0,0.0,90,0.00,,,0.00,WeatherCatV1.24B11,2014-07-10 04:05:00,
2014-07-10 00:10:00,63.1,60.1,29.86,ESE,117,0.0,0.0,90,0.00,,,0.00,WeatherCatV1.24B11,2014-07-10 04:10:00,
2014-07-10 00:15:00,62.8,60.1,29.86,ESE,117,0.0,0.0,91,0.00,,,0.00,WeatherCatV1.24B11,2014-07-10 04:15:00,
2014-07-10 00:18:00,62.7,60.0,29.86,ESE,117,0.0,0.0,91,0.00,,,0.00,WeatherCatV1.24B11,2014-07-10 04:18:00,
2014-07-10 00:23:00,62.5,59.8,29.86,ESE,117,0.0,0.0,91,0.00,,,0.00,WeatherCatV1.24B11,2014-07-10 04:23:00,
2014-07-10 00:28:00,62.3,59.6,29.86,ESE,117,0.0,0.0,91,0.00,,,0.00,WeatherCatV1.24B11,2014-07-10 04:28:00,
2014-07-10 00:33:00,62.2,59.5,29.86,ESE,117,0.0,0.0,91,0.00,,,0.00,WeatherCatV1.24B11,2014-07-10 04:33:00,
2014-07-10 00:38:00,61.9,59.2,29.86,ESE,117,0.0,0.0,91,0.00,,,0.00,WeatherCatV1.24B11,2014-07-10 04:38:00,
2014-07-10 00:43:00,61.6,58.9,29.87,ESE,117,0.0,0.0,91,0.00,,,0.00,WeatherCatV1.24B11,2014-07-10 04:43:00,
2014-07-10 00:48:00,61.3,58.7,29.87,ESE,117,0.0,0.0,91,0.00,,,0.00,WeatherCatV1.24B11,2014-07-10 04:48:00,
2014-07-10 00:53:00,61.1,58.5,29.87,ESE,117,0.0,0.0,91,0.00,,,0.00,WeatherCatV1.24B11,2014-07-10 04:53:00,
2014-07-10 00:58:00,60.9,58.6,29.88,ESE,117,0.0,0.0,92,0.00,,,0.00,WeatherCatV1.24B11,2014-07-10 04:58:00,
2014-07-10 01:03:00,60.7,58.4,29.87,ESE,117,0.0,0.0,92,0.00,,,0.00,WeatherCatV1.24B11,2014-07-10 05:03:00,
2014-07-10 01:08:00,60.6,58.3,29.87,ESE,117,0.0,0.0,92,0.00,,,0.00,WeatherCatV1.24B11,2014-07-10 05:08:00,
2014-07-10 01:13:00,60.4,58.1,29.87,SSW,207,0.0,3.0,92,0.00,,,0.00,WeatherCatV1.24B11,2014-07-10 05:13:00,
2014-07-10 01:18:00,60.3,58.0,29.88,SSW,207,0.0,0.0,92,0.00,,,0.00,WeatherCatV1.24B11,2014-07-10 05:18:00,
2014-07-10 01:23:00,60.1,57.8,29.87,SSW,207,0.0,0.0,92,0.00,,,0.00,WeatherCatV1.24B11,2014-07-10 05:23:00,
2014-07-10 01:28:00,60.0,58.0,29.87,SSW,207,0.0,0.0,93,0.00,,,0.00,WeatherCatV1.24B11,2014-07-10 05:28:00,
2014-07-10 01:33:00,59.8,57.8,29.87,SSW,204,0.0,0.0,93,0.00,,,0.00,WeatherCatV1.24B11,2014-07-10 05:33:00,
2014-07-10 01:38:00,59.7,57.7,29.88,SSW,204,0.0,0.0,93,0.00,,,0.00,WeatherCatV1.24B11,2014-07-10 05:38:00,
2014-07-10 01:43:00,59.6,57.6,29.88,SSW,204,0.0,0.0,93,0.00,,,0.00,WeatherCatV1.24B11,2014-07-10 05:43:00,
2014-07-10 01:48:00,59.5,57.5,29.87,SSW,204,0.0,1.0,93,0.00,,,0.00,WeatherCatV1.24B11,2014-07-10 05:48:00,
2014-07-10 01:53:00,59.5,57.5,29.88,SSW,204,0.0,0.0,93,0.00,,,0.00,WeatherCatV1.24B11,2014-07-10 05:53:00,
2014-07-10 01:59:00,59.5,57.5,29.88,SSW,204,0.0,0.0,93,0.00,,,0.00,WeatherCatV1.24B11,2014-07-10 05:59:00,
2014-07-10 02:04:00,59.4,57.7,29.88,SSW,203,0.0,0.0,94,0.00,,,0.00,WeatherCatV1.24B11,2014-07-10 06:04:00,
2014-07-10 02:09:00,59.3,57.6,29.87,SSW,205,0.0,0.0,94,0.00,,,0.00,WeatherCatV1.24B11,2014-07-10 06:09:00,
2014-07-10 02:14:00,59.2,57.2,29.87,SSW,205,0.0,0.0,93,0.00,,,0.00,WeatherCatV1.24B11,2014-07-10 06:14:00,
2014-07-10 02:19:00,59.0,57.3,29.88,SSW,205,0.0,0.0,94,0.00,,,0.00,WeatherCatV1.24B11,2014-07-10 06:19:00,
2014-07-10 02:24:00,59.0,57.3,29.88,SSW,205,0.0,1.0,94,0.00,,,0.00,WeatherCatV1.24B11,2014-07-10 06:24:00,
2014-07-10 02:29:00,59.0,57.3,29.88,SSW,205,1.0,1.0,94,0.00,,,0.00,WeatherCatV1.24B11,2014-07-10 06:29:00,
2014-07-10 02:34:00,59.0,57.3,29.88,SSW,205,0.0,0.0,94,0.00,,,0.00,WeatherCatV1.24B11,2014-07-10 06:34:00,
2014-07-10 02:39:00,58.9,57.2,29.88,SSW,205,0.0,0.0,94,0.00,,,0.00,WeatherCatV1.24B11,2014-07-10 06:39:00,
2014-07-10 02:44:00,58.7,57.0,29.88,SSW,205,0.0,0.0,94,0.00,,,0.00,WeatherCatV1.24B11,2014-07-10 06:44:00,
2014-07-10 02:49:00,58.6,56.9,29.89,SSW,205,0.0,0.0,94,0.00,,,0.00,WeatherCatV1.24B11,2014-07-10 06:49:00,
2014-07-10 02:54:00,58.4,56.7,29.89,SSW,205,0.0,1.0,94,0.00,,,0.00,WeatherCatV1.24B11,2014-07-10 06:54:00,
2014-07-10 02:59:00,58.4,56.7,29.89,SSW,205,0.0,2.0,94,0.00,,,0.00,WeatherCatV1.24B11,2014-07-10 06:59:00,
2014-07-10 03:04:00,58.4,56.7,29.89,SSW,205,0.0,0.0,94,0.00,,,0.00,WeatherCatV1.24B11,2014-07-10 07:04:00,
2014-07-10 03:09:00,58.3,56.6,29.90,SSW,205,0.0,0.0,94,0.00,,,0.00,WeatherCatV1.24B11,2014-07-10 07:09:00,
2014-07-10 03:14:00,58.2,56.5,29.89,SSW,205,0.0,0.0,94,0.00,,,0.00,WeatherCatV1.24B11,2014-07-10 07:14:00,
2014-07-10 03:19:00,58.2,56.5,29.90,SSW,207,0.0,2.0,94,0.00,,,0.00,WeatherCatV1.24B11,2014-07-10 07:19:00,
2014-07-10 03:24:00,58.0,56.3,29.90,SSW,204,0.0,0.0,94,0.00,,,0.00,WeatherCatV1.24B11,2014-07-10 07:24:00,
2014-07-10 03:29:00,58.0,56.3,29.90,SSW,204,0.0,0.0,94,0.00,,,0.00,WeatherCatV1.24B11,2014-07-10 07:29:00,
2014-07-10 03:34:00,57.9,56.2,29.89,SSW,204,0.0,0.0,94,0.00,,,0.00,WeatherCatV1.24B11,2014-07-10 07:34:00,
2014-07-10 03:39:00,57.9,56.2,29.89,SE,133,1.0,2.0,94,0.00,,,0.00,WeatherCatV1.24B11,2014-07-10 07:39:00,
2014-07-10 03:44:00,57.9,56.2,29.89,SE,133,0.0,0.0,94,0.00,,,0.00,WeatherCatV1.24B11,2014-07-10 07:44:00,
2014-07-10 03:49:00,57.9,56.2,29.89,SE,133,0.0,0.0,94,0.00,,,0.00,WeatherCatV1.24B11,2014-07-10 07:49:00,
2014-07-10 03:54:00,58.0,56.6,29.90,SE,133,0.0,0.0,95,0.00,,,0.00,WeatherCatV1.24B11,2014-07-10 07:54:00,
2014-07-10 03:59:00,58.2,56.8,29.90,East,79,0.0,0.0,95,0.00,,,0.00,WeatherCatV1.24B11,2014-07-10 07:59:00,
2014-07-10 04:04:00,58.2,56.8,29.91,East,79,1.0,1.0,95,0.00,,,0.00,WeatherCatV1.24B11,2014-07-10 08:04:00,
2014-07-10 04:09:00,58.1,56.7,29.91,ESE,119,2.0,3.0,95,0.00,,,0.00,WeatherCatV1.24B11,2014-07-10 08:09:00,
2014-07-10 04:14:00,58.0,56.6,29.92,SE,145,0.0,2.0,95,0.00,,,0.00,WeatherCatV1.24B11,2014-07-10 08:14:00,
2014-07-10 04:19:00,58.2,56.8,29.92,ESE,117,0.0,0.0,95,0.00,,,0.00,WeatherCatV1.24B11,2014-07-10 08:19:00,
2014-07-10 04:24:00,58.1,56.7,29.92,ESE,117,0.0,0.0,95,0.00,,,0.00,WeatherCatV1.24B11,2014-07-10 08:24:00,
2014-07-10 04:29:00,58.2,56.8,29.92,ESE,117,0.0,3.0,95,0.00,,,0.00,WeatherCatV1.24B11,2014-07-10 08:29:00,
2014-07-10 04:34:00,58.1,56.7,29.93,ESE,117,0.0,0.0,95,0.00,,,0.00,WeatherCatV1.24B11,2014-07-10 08:34:00,
2014-07-10 04:39:00,58.1,56.7,29.93,East,98,0.0,2.0,95,0.00,,,0.00,WeatherCatV1.24B11,2014-07-10 08:39:00,
2014-07-10 04:44:00,58.3,56.9,29.93,East,98,0.0,0.0,95,0.00,,,0.00,WeatherCatV1.24B11,2014-07-10 08:44:00,
2014-07-10 04:49:00,58.3,56.9,29.93,East,98,0.0,2.0,95,0.00,,,0.00,WeatherCatV1.24B11,2014-07-10 08:49:00,
2014-07-10 04:54:00,58.5,56.8,29.93,SSE,160,0.0,1.0,94,0.00,,,0.00,WeatherCatV1.24B11,2014-07-10 08:54:00,
2014-07-10 04:59:00,58.4,56.7,29.94,SSE,160,0.0,0.0,94,0.00,,,0.00,WeatherCatV1.24B11,2014-07-10 08:59:00,
2014-07-10 05:04:00,58.4,56.7,29.94,SSE,160,0.0,0.0,94,0.00,,,0.00,WeatherCatV1.24B11,2014-07-10 09:04:00,
2014-07-10 05:09:00,-999.0,-99.9,29.92,North,-999,-999.0,0.0,-999,0.00,,,0.00,WeatherCatV1.24B11,2014-07-10 09:09:00,
2014-07-10 05:14:00,-999.0,-99.9,29.92,North,-999,-999.0,0.0,-999,0.00,,,0.00,WeatherCatV1.24B11,2014-07-10 09:14:00,
2014-07-10 05:19:00,-999.0,-99.9,29.92,North,-999,-999.0,0.0,-999,0.00,,,0.00,WeatherCatV1.24B11,2014-07-10 09:19:00,
2014-07-10 05:24:00,-999.0,-99.9,29.92,North,-999,-999.0,0.0,-999,0.00,,,0.00,WeatherCatV1.24B11,2014-07-10 09:24:00,
2014-07-10 05:29:00,-999.0,-99.9,29.92,North,-999,-999.0,0.0,-999,0.00,,,0.00,WeatherCatV1.24B11,2014-07-10 09:29:00,
2014-07-10 05:34:00,-999.0,-99.9,29.92,North,-999,-999.0,0.0,-999,0.00,,,0.00,WeatherCatV1.24B11,2014-07-10 09:34:00,
2014-07-10 05:39:00,-999.0,-99.9,29.92,North,-999,-999.0,0.0,-999,0.00,,,0.00,WeatherCatV1.24B11,2014-07-10 09:39:00,
2014-07-10 05:44:00,-999.0,-99.9,29.92,North,-999,-999.0,0.0,-999,0.00,,,0.00,WeatherCatV1.24B11,2014-07-10 09:44:00,
2014-07-10 05:49:00,-999.0,-99.9,29.92,North,-999,-999.0,0.0,-999,0.00,,,0.00,WeatherCatV1.24B11,2014-07-10 09:49:00,
2014-07-10 05:54:00,-999.0,-99.9,29.92,North,-999,-999.0,0.0,-999,0.00,,,0.00,WeatherCatV1.24B11,2014-07-10 09:54:00,
2014-07-10 05:59:00,-999.0,-99.9,29.93,North,-999,-999.0,0.0,-999,0.00,,,0.00,WeatherCatV1.24B11,2014-07-10 09:59:00,
2014-07-10 06:04:00,-999.0,-99.9,29.94,North,-999,-999.0,0.0,-999,0.00,,,0.00,WeatherCatV1.24B11,2014-07-10 10:04:00,
2014-07-10 06:09:00,-999.0,-99.9,29.94,North,-999,-999.0,0.0,-999,0.00,,,0.00,WeatherCatV1.24B11,2014-07-10 10:09:00,
2014-07-10 06:14:00,-999.0,-99.9,29.95,North,-999,-999.0,0.0,-999,0.00,,,0.00,WeatherCatV1.24B11,2014-07-10 10:14:00,
2014-07-10 06:19:00,-999.0,-99.9,29.95,North,-999,-999.0,0.0,-999,0.00,,,0.00,WeatherCatV1.24B11,2014-07-10 10:19:00,
2014-07-10 06:24:00,-999.0,-99.9,29.95,North,-999,-999.0,0.0,-999,0.00,,,0.00,WeatherCatV1.24B11,2014-07-10 10:24:00,
2014-07-10 06:29:00,-999.0,-99.9,29.95,North,-999,-999.0,0.0,-999,0.00,,,0.00,WeatherCatV1.24B11,2014-07-10 10:29:00,
2014-07-10 06:34:00,-999.0,-99.9,29.96,North,-999,-999.0,0.0,-999,0.00,,,0.00,WeatherCatV1.24B11,2014-07-10 10:34:00,
2014-07-10 06:39:00,-999.0,-99.9,29.96,North,-999,-999.0,0.0,-999,0.00,,,0.00,WeatherCatV1.24B11,2014-07-10 10:39:00,
2014-07-10 06:44:00,-999.0,-99.9,29.96,North,-999,-999.0,0.0,-999,0.00,,,0.00,WeatherCatV1.24B11,2014-07-10 10:44:00,
2014-07-10 06:49:00,59.0,55.5,29.98,East,79,0.0,0.0,88,0.00,,,0.00,WeatherCatV1.24B11,2014-07-10 10:49:00,
2014-07-10 06:54:00,59.0,55.1,29.98,ENE,78,0.0,0.0,87,0.00,,,0.00,WeatherCatV1.24B11,2014-07-10 10:54:00,
2014-07-10 06:59:00,59.0,55.1,29.99,East,79,0.0,0.0,87,0.00,,,0.00,WeatherCatV1.24B11,2014-07-10 10:59:00,
2014-07-10 07:04:00,59.0,54.8,29.99,NE,34,0.0,2.0,86,0.00,,,0.00,WeatherCatV1.24B11,2014-07-10 11:04:00,
2014-07-10 07:09:00,59.3,54.8,29.99,North,349,0.0,0.0,85,0.00,,,0.00,WeatherCatV1.24B11,2014-07-10 11:09:00,
2014-07-10 07:14:00,59.6,55.4,29.99,North,355,0.0,0.0,86,0.00,,,0.00,WeatherCatV1.24B11,2014-07-10 11:14:00,
2014-07-10 07:19:00,59.6,55.4,29.99,North,355,0.0,0.0,86,0.00,,,0.00,WeatherCatV1.24B11,2014-07-10 11:19:00,
2014-07-10 07:24:00,59.7,55.5,30.00,North,355,0.0,0.0,86,0.00,,,0.00,WeatherCatV1.24B11,2014-07-10 11:24:00,
2014-07-10 07:29:00,59.8,55.6,30.00,North,5,0.0,0.0,86,0.00,,,0.00,WeatherCatV1.24B11,2014-07-10 11:29:00,
2014-07-10 07:34:00,59.6,54.4,30.00,ENE,63,0.0,5.0,83,0.00,,,0.00,WeatherCatV1.24B11,2014-07-10 11:34:00,
2014-07-10 07:39:00,59.9,55.0,30.00,ENE,74,0.0,1.0,84,0.00,,,0.00,WeatherCatV1.24B11,2014-07-10 11:39:00,
2014-07-10 07:44:00,60.0,55.5,30.00,ENE,75,0.0,0.0,85,0.00,,,0.00,WeatherCatV1.24B11,2014-07-10 11:44:00,
2014-07-10 07:49:00,60.2,55.0,30.00,North,0,0.0,1.0,83,0.00,,,0.00,WeatherCatV1.24B11,2014-07-10 11:49:00,
2014-07-10 07:54:00,60.3,54.8,30.00,SE,127,0.0,0.0,82,0.00,,,0.00,WeatherCatV1.24B11,2014-07-10 11:54:00,
2014-07-10 07:59:00,60.5,55.6,30.00,ESE,113,0.0,0.0,84,0.00,,,0.00,WeatherCatV1.24B11,2014-07-10 11:59:00,
2014-07-10 08:04:00,60.5,54.6,30.01,ESE,113,0.0,1.0,81,0.00,,,0.00,WeatherCatV1.24B11,2014-07-10 12:04:00,
2014-07-10 08:09:00,60.8,54.6,30.01,ESE,105,0.0,2.0,80,0.00,,,0.00,WeatherCatV1.24B11,2014-07-10 12:09:00,
2014-07-10 08:14:00,61.1,55.6,30.01,East,86,0.0,3.0,82,0.00,,,0.00,WeatherCatV1.24B11,2014-07-10 12:14:00,
2014-07-10 08:19:00,61.2,55.7,30.01,East,95,0.0,0.0,82,0.00,,,0.00,WeatherCatV1.24B11,2014-07-10 12:19:00,
2014-07-10 08:24:00,61.3,53.7,30.01,South,184,0.0,4.0,76,0.00,,,0.00,WeatherCatV1.24B11,2014-07-10 12:24:00,
2014-07-10 08:29:00,61.7,51.4,30.02,ESE,111,0.0,3.0,69,0.00,,,0.00,WeatherCatV1.24B11,2014-07-10 12:29:00,
2014-07-10 08:34:00,62.2,52.3,30.01,East,87,0.0,1.0,70,0.00,,,0.00,WeatherCatV1.24B11,2014-07-10 12:34:00,
2014-07-10 08:39:00,62.6,53.4,30.02,ESE,119,0.0,1.0,72,0.00,,,0.00,WeatherCatV1.24B11,2014-07-10 12:39:00,
2014-07-10 08:44:00,62.5,53.7,30.02,SE,131,0.0,0.0,73,0.00,,,0.00,WeatherCatV1.24B11,2014-07-10 12:44:00,
2014-07-10 08:49:00,62.5,50.6,30.02,SSW,192,0.0,5.0,65,0.00,,,0.00,WeatherCatV1.24B11,2014-07-10 12:49:00,
2014-07-10 08:54:00,62.9,51.8,30.02,East,91,0.0,1.0,67,0.00,,,0.00,WeatherCatV1.24B11,2014-07-10 12:54:00,
2014-07-10 08:59:00,63.1,53.9,30.02,East,92,0.0,0.0,72,0.00,,,0.00,WeatherCatV1.24B11,2014-07-10 12:59:00,
2014-07-10 09:04:00,63.0,54.6,30.02,East,88,0.0,0.0,74,0.00,,,0.00,WeatherCatV1.24B11,2014-07-10 13:04:00,
2014-07-10 09:09:00,62.9,54.1,30.02,East,82,0.0,1.0,73,0.00,,,0.00,WeatherCatV1.24B11,2014-07-10 13:09:00,
2014-07-10 09:14:00,63.0,55.0,30.02,ESE,105,0.0,0.0,75,0.00,,,0.00,WeatherCatV1.24B11,2014-07-10 13:14:00,
2014-07-10 09:19:00,63.0,53.4,30.02,East,87,5.0,5.0,71,0.00,,,0.00,WeatherCatV1.24B11,2014-07-10 13:19:00,
2014-07-10 09:24:00,63.3,54.1,30.02,SE,136,0.0,3.0,72,0.00,,,0.00,WeatherCatV1.24B11,2014-07-10 13:24:00,
2014-07-10 09:29:00,63.8,53.8,30.02,SE,142,6.0,6.0,70,0.00,,,0.00,WeatherCatV1.24B11,2014-07-10 13:29:00,
2014-07-10 09:34:00,64.0,51.6,30.02,ESE,121,0.0,5.0,64,0.00,,,0.00,WeatherCatV1.24B11,2014-07-10 13:34:00,
2014-07-10 09:39:00,64.2,51.8,30.02,ESE,119,0.0,3.0,64,0.00,,,0.00,WeatherCatV1.24B11,2014-07-10 13:39:00,
2014-07-10 09:44:00,64.7,51.4,30.02,South,180,0.0,4.0,62,0.00,,,0.00,WeatherCatV1.24B11,2014-07-10 13:44:00,
2014-07-10 09:49:00,65.0,52.5,30.02,ESE,102,1.0,7.0,64,0.00,,,0.00,WeatherCatV1.24B11,2014-07-10 13:49:00,
2014-07-10 09:54:00,65.6,51.3,30.02,WSW,239,0.0,4.0,60,0.00,,,0.00,WeatherCatV1.24B11,2014-07-10 13:54:00,
2014-07-10 09:59:00,66.2,53.2,30.02,WSW,250,0.0,1.0,63,0.00,,,0.00,WeatherCatV1.24B11,2014-07-10 13:59:00,
2014-07-10 10:04:00,67.0,53.1,30.02,SE,125,0.0,2.0,61,0.00,,,0.00,WeatherCatV1.24B11,2014-07-10 14:04:00,
2014-07-10 10:09:00,68.2,54.2,30.02,SE,131,5.0,5.0,61,0.00,,,0.00,WeatherCatV1.24B11,2014-07-10 14:09:00,
2014-07-10 10:14:00,68.9,51.6,30.02,ESE,107,0.0,4.0,54,0.00,,,0.00,WeatherCatV1.24B11,2014-07-10 14:14:00,
2014-07-10 10:19:00,69.4,54.4,30.02,SSE,165,0.0,4.0,59,0.00,,,0.00,WeatherCatV1.24B11,2014-07-10 14:19:00,
2014-07-10 10:24:00,69.7,52.8,30.02,SE,132,4.0,7.0,55,0.00,,,0.00,WeatherCatV1.24B11,2014-07-10 14:24:00,
2014-07-10 10:29:00,69.9,51.5,30.02,ENE,62,0.0,3.0,52,0.00,,,0.00,WeatherCatV1.24B11,2014-07-10 14:29:00,
2014-07-10 10:34:00,70.4,55.4,30.02,WSW,249,2.0,3.0,59,0.00,,,0.00,WeatherCatV1.24B11,2014-07-10 14:34:00,
2014-07-10 10:39:00,70.5,52.5,30.02,SE,129,1.0,3.0,53,0.00,,,0.00,WeatherCatV1.24B11,2014-07-10 14:39:00,
2014-07-10 10:44:00,70.3,51.8,30.02,ENE,72,2.0,7.0,52,0.00,,,0.00,WeatherCatV1.24B11,2014-07-10 14:44:00,
2014-07-10 10:49:00,70.1,50.6,30.02,SE,140,0.0,1.0,50,0.00,,,0.00,WeatherCatV1.24B11,2014-07-10 14:49:00,
2014-07-10 10:54:00,70.2,53.8,30.02,West,279,0.0,1.0,56,0.00,,,0.00,WeatherCatV1.24B11,2014-07-10 14:54:00,
2014-07-10 10:59:00,70.5,55.9,30.02,West,277,0.0,0.0,60,0.00,,,0.00,WeatherCatV1.24B11,2014-07-10 14:59:00,
2014-07-10 11:04:00,70.5,51.5,30.02,SE,125,1.0,4.0,51,0.00,,,0.00,WeatherCatV1.24B11,2014-07-10 15:04:00,
2014-07-10 11:09:00,70.3,53.8,30.02,ESE,113,2.0,3.0,56,0.00,,,0.00,WeatherCatV1.24B11,2014-07-10 15:09:00,
2014-07-10 11:14:00,70.2,53.8,30.02,ESE,111,0.0,1.0,56,0.00,,,0.00,WeatherCatV1.24B11,2014-07-10 15:14:00,
2014-07-10 11:19:00,70.2,53.8,30.02,SE,132,0.0,1.0,56,0.00,,,0.00,WeatherCatV1.24B11,2014-07-10 15:19:00,
2014-07-10 11:24:00,70.1,53.7,30.02,SE,138,0.0,5.0,56,0.00,,,0.00,WeatherCatV1.24B11,2014-07-10 15:24:00,
2014-07-10 11:29:00,70.2,53.3,30.02,ESE,122,1.0,3.0,55,0.00,,,0.00,WeatherCatV1.24B11,2014-07-10 15:29:00,
2014-07-10 11:34:00,70.4,53.0,30.02,ENE,76,5.0,6.0,54,0.00,,,0.00,WeatherCatV1.24B11,2014-07-10 15:34:00,
2014-07-10 11:39:00,70.3,51.3,30.02,ENE,65,2.0,6.0,51,0.00,,,0.00,WeatherCatV1.24B11,2014-07-10 15:39:00,
2014-07-10 11:44:00,70.5,57.3,30.02,ESE,111,0.0,1.0,63,0.00,,,0.00,WeatherCatV1.24B11,2014-07-10 15:44:00,
2014-07-10 11:49:00,70.8,55.3,30.02,East,100,1.0,4.0,58,0.00,,,0.00,WeatherCatV1.24B11,2014-07-10 15:49:00,
2014-07-10 11:54:00,71.7,53.6,30.02,ENE,59,1.0,1.0,53,0.00,,,0.00,WeatherCatV1.24B11,2014-07-10 15:54:00,
2014-07-10 11:59:00,72.7,54.6,30.02,North,349,0.0,1.0,53,0.00,,,0.00,WeatherCatV1.24B11,2014-07-10 15:59:00,
2014-07-10 12:04:00,74.1,56.4,30.02,NW,325,0.0,1.0,54,0.00,,,0.00,WeatherCatV1.24B11,2014-07-10 16:04:00,
2014-07-10 12:09:00,75.1,57.3,30.02,WNW,301,1.0,1.0,54,0.00,,,0.00,WeatherCatV1.24B11,2014-07-10 16:09:00,
2014-07-10 12:14:00,75.5,55.5,30.02,ESE,119,0.0,1.0,50,0.00,,,0.00,WeatherCatV1.24B11,2014-07-10 16:14:00,
2014-07-10 12:19:00,75.9,58.5,30.03,NNE,28,1.0,3.0,55,0.00,,,0.00,WeatherCatV1.24B11,2014-07-10 16:19:00,
2014-07-10 12:24:00,76.0,54.3,30.03,ESE,113,4.0,10.0,47,0.00,,,0.00,WeatherCatV1.24B11,2014-07-10 16:24:00,
2014-07-10 12:29:00,75.3,54.2,30.03,SE,124,6.0,6.0,48,0.00,,,0.00,WeatherCatV1.24B11,2014-07-10 16:29:00,
2014-07-10 12:34:00,75.2,59.9,30.02,ESE,114,0.0,3.0,59,0.00,,,0.00,WeatherCatV1.24B11,2014-07-10 16:34:00,
2014-07-10 12:39:00,75.4,56.0,30.03,East,101,1.0,4.0,51,0.00,,,0.00,WeatherCatV1.24B11,2014-07-10 16:39:00,
2014-07-10 12:44:00,75.0,52.2,30.03,NNW,336,1.0,5.0,45,0.00,,,0.00,WeatherCatV1.24B11,2014-07-10 16:44:00,
2014-07-10 12:49:00,75.3,57.0,30.02,ESE,106,4.0,4.0,53,0.00,,,0.00,WeatherCatV1.24B11,2014-07-10 16:49:00,
2014-07-10 12:54:00,75.5,55.5,30.03,ENE,74,1.0,6.0,50,0.00,,,0.00,WeatherCatV1.24B11,2014-07-10 16:54:00,
2014-07-10 12:59:00,75.5,53.8,30.03,NE,43,1.0,9.0,47,0.00,,,0.00,WeatherCatV1.24B11,2014-07-10 16:59:00,
2014-07-10 13:04:00,75.0,53.4,30.03,West,264,0.0,9.0,47,0.00,,,0.00,WeatherCatV1.24B11,2014-07-10 17:04:00,
2014-07-10 13:09:00,75.6,59.3,30.03,ESE,119,1.0,4.0,57,0.00,,,0.00,WeatherCatV1.24B11,2014-07-10 17:09:00,
2014-07-10 13:14:00,76.3,59.9,30.02,ESE,114,4.0,6.0,57,0.00,,,0.00,WeatherCatV1.24B11,2014-07-10 17:14:00,
2014-07-10 13:19:00,75.9,54.2,30.03,ESE,111,0.0,2.0,47,0.00,,,0.00,WeatherCatV1.24B11,2014-07-10 17:19:00,
2014-07-10 13:24:00,75.7,58.4,30.03,ESE,113,2.0,4.0,55,0.00,,,0.00,WeatherCatV1.24B11,2014-07-10 17:24:00,
2014-07-10 13:29:00,75.6,58.3,30.03,SE,140,6.0,6.0,55,0.00,,,0.00,WeatherCatV1.24B11,2014-07-10 17:29:00,
2014-07-10 13:34:00,75.6,59.8,30.03,SE,146,0.0,2.0,58,0.00,,,0.00,WeatherCatV1.24B11,2014-07-10 17:34:00,
2014-07-10 13:39:00,75.8,57.4,30.03,ESE,102,2.0,4.0,53,0.00,,,0.00,WeatherCatV1.24B11,2014-07-10 17:39:00,
2014-07-10 13:44:00,76.2,55.0,30.03,WSW,245,0.0,6.0,48,0.00,,,0.00,WeatherCatV1.24B11,2014-07-10 17:44:00,
2014-07-10 13:49:00,76.7,53.1,30.03,ESE,121,2.0,3.0,44,0.00,,,0.00,WeatherCatV1.24B11,2014-07-10 17:49:00,
2014-07-10 13:54:00,77.2,61.3,30.02,SSE,162,1.0,2.0,58,0.00,,,0.00,WeatherCatV1.24B11,2014-07-10 17:54:00,
2014-07-10 13:59:00,77.6,58.6,30.02,South,177,2.0,5.0,52,0.00,,,0.00,WeatherCatV1.24B11,2014-07-10 17:59:00,
2014-07-10 14:04:00,78.1,57.4,30.02,East,96,0.0,4.0,49,0.00,,,0.00,WeatherCatV1.24B11,2014-07-10 18:04:00,
2014-07-10 14:09:00,78.0,54.9,30.03,NNW,348,0.0,6.0,45,0.00,,,0.00,WeatherCatV1.24B11,2014-07-10 18:09:00,
2014-07-10 14:14:00,78.0,57.8,30.03,ESE,105,3.0,6.0,50,0.00,,,0.00,WeatherCatV1.24B11,2014-07-10 18:14:00,
2014-07-10 14:19:00,77.7,54.6,30.03,NNE,29,0.0,7.0,45,0.00,,,0.00,WeatherCatV1.24B11,2014-07-10 18:19:00,
2014-07-10 14:24:00,77.4,55.0,30.03,NE,55,4.0,6.0,46,0.00,,,0.00,WeatherCatV1.24B11,2014-07-10 18:24:00,
2014-07-10 14:29:00,77.3,56.6,30.03,ENE,78,3.0,6.0,49,0.00,,,0.00,WeatherCatV1.24B11,2014-07-10 18:29:00,
2014-07-10 14:34:00,77.6,59.6,30.03,NE,49,2.0,4.0,54,0.00,,,0.00,WeatherCatV1.24B11,2014-07-10 18:34:00,
2014-07-10 14:39:00,78.3,59.7,30.03,ENE,78,0.0,5.0,53,0.00,,,0.00,WeatherCatV1.24B11,2014-07-10 18:39:00,
2014-07-10 14:44:00,78.7,59.6,30.03,ESE,114,4.0,4.0,52,0.00,,,0.00,WeatherCatV1.24B11,2014-07-10 18:44:00,
2014-07-10 14:49:00,78.7,54.9,30.03,East,83,0.0,2.0,44,0.00,,,0.00,WeatherCatV1.24B11,2014-07-10 18:49:00,
2014-07-10 14:54:00,78.5,55.4,30.03,East,93,1.0,5.0,45,0.00,,,0.00,WeatherCatV1.24B11,2014-07-10 18:54:00,
2014-07-10 14:59:00,77.9,58.3,30.02,NE,51,0.0,6.0,51,0.00,,,0.00,WeatherCatV1.24B11,2014-07-10 18:59:00,
2014-07-10 15:04:00,78.1,53.8,30.03,ESE,119,1.0,3.0,43,0.00,,,0.00,WeatherCatV1.24B11,2014-07-10 19:04:00,
2014-07-10 15:09:00,78.7,57.3,30.03,East,83,0.0,3.0,48,0.00,,,0.00,WeatherCatV1.24B11,2014-07-10 19:09:00,
2014-07-10 15:14:00,79.4,61.8,30.03,WSW,253,3.0,3.0,55,0.00,,,0.00,WeatherCatV1.24B11,2014-07-10 19:14:00,
2014-07-10 15:19:00,79.8,58.9,30.03,ENE,75,2.0,4.0,49,0.00,,,0.00,WeatherCatV1.24B11,2014-07-10 19:19:00,
2014-07-10 15:24:00,79.7,61.6,30.03,SE,138,4.0,4.0,54,0.00,,,0.00,WeatherCatV1.24B11,2014-07-10 19:24:00,
2014-07-10 15:29:00,79.7,58.2,30.03,NNE,26,1.0,3.0,48,0.00,,,0.00,WeatherCatV1.24B11,2014-07-10 19:29:00,
2014-07-10 15:34:00,79.8,55.9,30.03,SE,131,3.0,4.0,44,0.00,,,0.00,WeatherCatV1.24B11,2014-07-10 19:34:00,
2014-07-10 15:39:00,79.6,58.2,30.03,ESE,115,1.0,4.0,48,0.00,,,0.00,WeatherCatV1.24B11,2014-07-10 19:39:00,
2014-07-10 15:44:00,79.0,59.8,30.03,East,90,2.0,3.0,52,0.00,,,0.00,WeatherCatV1.24B11,2014-07-10 19:44:00,
2014-07-10 15:49:00,78.7,53.0,30.03,East,88,2.0,5.0,41,0.00,,,0.00,WeatherCatV1.24B11,2014-07-10 19:49:00,
2014-07-10 15:54:00,78.2,53.8,30.03,SE,132,0.0,2.0,43,0.00,,,0.00,WeatherCatV1.24B11,2014-07-10 19:54:00,
2014-07-10 15:59:00,77.7,54.0,30.03,West,261,3.0,4.0,44,0.00,,,0.00,WeatherCatV1.24B11,2014-07-10 19:59:00,
2014-07-10 16:04:00,77.5,54.5,30.03,North,350,4.0,5.0,45,0.00,,,0.00,WeatherCatV1.24B11,2014-07-10 20:04:00,
2014-07-10 16:09:00,77.5,60.0,30.03,ESE,111,4.0,4.0,55,0.00,,,0.00,WeatherCatV1.24B11,2014-07-10 20:09:00,
2014-07-10 16:14:00,77.6,54.5,30.03,SE,128,0.0,4.0,45,0.00,,,0.00,WeatherCatV1.24B11,2014-07-10 20:14:00,
2014-07-10 16:19:00,78.0,58.9,30.03,ENE,58,0.0,4.0,52,0.00,,,0.00,WeatherCatV1.24B11,2014-07-10 20:19:00,
2014-07-10 16:24:00,78.1,53.8,30.03,East,81,0.0,4.0,43,0.00,,,0.00,WeatherCatV1.24B11,2014-07-10 20:24:00,
2014-07-10 16:29:00,77.8,55.9,30.03,SE,126,0.0,1.0,47,0.00,,,0.00,WeatherCatV1.24B11,2014-07-10 20:29:00,
2014-07-10 16:34:00,77.6,55.2,30.03,ESE,114,0.0,6.0,46,0.00,,,0.00,WeatherCatV1.24B11,2014-07-10 20:34:00,
2014-07-10 16:39:00,77.5,55.7,30.03,ESE,117,0.0,2.0,47,0.00,,,0.00,WeatherCatV1.24B11,2014-07-10 20:39:00,
2014-07-10 16:44:00,77.7,58.1,30.03,SW,221,5.0,5.0,51,0.00,,,0.00,WeatherCatV1.24B11,2014-07-10 20:44:00,
2014-07-10 16:49:00,77.3,53.0,30.04,East,83,0.0,2.0,43,0.00,,,0.00,WeatherCatV1.24B11,2014-07-10 20:49:00,
2014-07-10 16:54:00,76.9,53.3,30.04,SW,218,0.0,3.0,44,0.00,,,0.00,WeatherCatV1.24B11,2014-07-10 20:54:00,
2014-07-10 16:59:00,76.8,54.4,30.03,ESE,119,3.0,5.0,46,0.00,,,0.00,WeatherCatV1.24B11,2014-07-10 20:59:00,
2014-07-10 17:04:00,76.5,52.3,30.01,WSW,244,1.0,3.0,43,0.00,,,0.00,WeatherCatV1.24B11,2014-07-10 21:04:00,
2014-07-10 17:09:00,76.4,54.7,30.01,East,100,1.0,3.0,47,0.00,,,0.00,WeatherCatV1.24B11,2014-07-10 21:09:00,
2014-07-10 17:14:00,76.7,56.6,30.01,ESE,105,0.0,2.0,50,0.00,,,0.00,WeatherCatV1.24B11,2014-07-10 21:14:00,
2014-07-10 17:19:00,76.9,54.5,30.02,ESE,109,0.0,3.0,46,0.00,,,0.00,WeatherCatV1.24B11,2014-07-10 21:19:00,
2014-07-10 17:24:00,76.9,57.4,30.01,ESE,115,0.0,4.0,51,0.00,,,0.00,WeatherCatV1.24B11,2014-07-10 21:24:00,
2014-07-10 17:29:00,77.0,57.5,30.01,ESE,115,0.0,1.0,51,0.00,,,0.00,WeatherCatV1.24B11,2014-07-10 21:29:00,
2014-07-10 17:34:00,77.0,58.0,30.01,ESE,123,0.0,0.0,52,0.00,,,0.00,WeatherCatV1.24B11,2014-07-10 21:34:00,
2014-07-10 17:39:00,77.1,57.0,30.02,ESE,122,0.0,1.0,50,0.00,,,0.00,WeatherCatV1.24B11,2014-07-10 21:39:00,
2014-07-10 17:44:00,76.7,58.3,30.02,SE,128,0.0,3.0,53,0.00,,,0.00,WeatherCatV1.24B11,2014-07-10 21:44:00,
2014-07-10 17:49:00,76.7,59.8,30.02,East,94,0.0,0.0,56,0.00,,,0.00,WeatherCatV1.24B11,2014-07-10 21:49:00,
2014-07-10 17:54:00,76.6,58.2,30.02,ESE,105,0.0,0.0,53,0.00,,,0.00,WeatherCatV1.24B11,2014-07-10 21:54:00,
2014-07-10 17:59:00,77.0,60.1,30.02,ESE,108,0.0,1.0,56,0.00,,,0.00,WeatherCatV1.24B11,2014-07-10 21:59:00,
2014-07-10 18:04:00,77.2,59.2,30.04,ESE,106,0.0,0.0,54,0.00,,,0.00,WeatherCatV1.24B11,2014-07-10 22:04:00,
2014-07-10 18:09:00,77.4,58.9,30.04,ESE,121,0.0,0.0,53,0.00,,,0.00,WeatherCatV1.24B11,2014-07-10 22:09:00,
2014-07-10 18:14:00,77.3,58.3,30.05,ESE,114,0.0,2.0,52,0.00,,,0.00,WeatherCatV1.24B11,2014-07-10 22:14:00,
2014-07-10 18:19:00,76.3,54.0,30.05,ESE,122,3.0,3.0,46,0.00,,,0.00,WeatherCatV1.24B11,2014-07-10 22:19:00,
2014-07-10 18:24:00,75.3,58.0,30.05,East,92,0.0,0.0,55,0.00,,,0.00,WeatherCatV1.24B11,2014-07-10 22:24:00,
2014-07-10 18:29:00,75.0,55.1,30.05,East,90,0.0,1.0,50,0.00,,,0.00,WeatherCatV1.24B11,2014-07-10 22:29:00,
2014-07-10 18:34:00,74.5,57.2,30.06,East,90,0.0,0.0,55,0.00,,,0.00,WeatherCatV1.24B11,2014-07-10 22:34:00,
2014-07-10 18:39:00,73.9,55.7,30.06,East,96,0.0,0.0,53,0.00,,,0.00,WeatherCatV1.24B11,2014-07-10 22:39:00,
2014-07-10 18:44:00,72.9,54.8,30.06,East,98,0.0,0.0,53,0.00,,,0.00,WeatherCatV1.24B11,2014-07-10 22:44:00,
2014-07-10 18:49:00,72.0,55.4,30.07,East,101,0.0,0.0,56,0.00,,,0.00,WeatherCatV1.24B11,2014-07-10 22:49:00,
2014-07-10 18:54:00,70.9,53.4,30.07,East,101,0.0,0.0,54,0.00,,,0.00,WeatherCatV1.24B11,2014-07-10 22:54:00,
2014-07-10 18:59:00,70.1,56.5,30.08,East,101,0.0,0.0,62,0.00,,,0.00,WeatherCatV1.24B11,2014-07-10 22:59:00,
2014-07-10 19:04:00,69.3,56.6,30.08,East,101,0.0,0.0,64,0.00,,,0.00,WeatherCatV1.24B11,2014-07-10 23:04:00,
2014-07-10 19:09:00,68.6,53.7,30.08,ESE,102,0.0,0.0,59,0.00,,,0.00,WeatherCatV1.24B11,2014-07-10 23:09:00,
2014-07-10 19:14:00,67.9,54.4,30.08,ESE,106,0.0,0.0,62,0.00,,,0.00,WeatherCatV1.24B11,2014-07-10 23:14:00,
2014-07-10 19:19:00,67.3,54.3,30.09,ESE,113,0.0,0.0,63,0.00,,,0.00,WeatherCatV1.24B11,2014-07-10 23:19:00,
2014-07-10 19:24:00,66.7,55.0,30.09,SE,128,0.0,0.0,66,0.00,,,0.00,WeatherCatV1.24B11,2014-07-10 23:24:00,
2014-07-10 19:29:00,66.1,54.8,30.09,SE,136,0.0,0.0,67,0.00,,,0.00,WeatherCatV1.24B11,2014-07-10 23:29:00,
2014-07-10 19:34:00,65.4,54.6,30.10,South,172,0.0,0.0,68,0.00,,,0.00,WeatherCatV1.24B11,2014-07-10 23:34:00,
2014-07-10 19:39:00,64.8,54.8,30.10,South,169,0.0,0.0,70,0.00,,,0.00,WeatherCatV1.24B11,2014-07-10 23:39:00,
2014-07-10 19:44:00,64.2,54.2,30.10,South,171,0.0,0.0,70,0.00,,,0.00,WeatherCatV1.24B11,2014-07-10 23:44:00,
2014-07-10 19:49:00,63.7,54.5,30.10,South,169,0.0,0.0,72,0.00,,,0.00,WeatherCatV1.24B11,2014-07-10 23:49:00,
2014-07-10 19:54:00,63.1,54.7,30.11,South,184,0.0,0.0,74,0.00,,,0.00,WeatherCatV1.24B11,2014-07-10 23:54:00,
2014-07-10 19:59:00,62.7,54.7,30.11,South,191,0.0,0.0,75,0.00,,,0.00,WeatherCatV1.24B11,2014-07-10 23:59:00,
2014-07-10 20:04:00,62.2,54.5,30.11,SSW,200,0.0,2.0,76,0.00,,,0.00,WeatherCatV1.24B11,2014-07-11 00:04:00,
2014-07-10 20:09:00,61.8,54.2,30.11,SSW,205,0.0,0.0,76,0.00,,,0.00,WeatherCatV1.24B11,2014-07-11 00:09:00,
2014-07-10 20:14:00,61.6,54.3,30.11,SSW,203,0.0,0.0,77,0.00,,,0.00,WeatherCatV1.24B11,2014-07-11 00:14:00,
2014-07-10 20:19:00,61.3,54.4,30.12,SSW,200,0.0,0.0,78,0.00,,,0.00,WeatherCatV1.24B11,2014-07-11 00:19:00,
2014-07-10 20:24:00,60.9,54.0,30.12,SSW,196,0.0,0.0,78,0.00,,,0.00,WeatherCatV1.24B11,2014-07-11 00:24:00,
2014-07-10 20:29:00,60.4,53.5,30.12,SSW,198,0.0,0.0,78,0.00,,,0.00,WeatherCatV1.24B11,2014-07-11 00:29:00,
2014-07-10 20:34:00,60.0,53.8,30.12,SSW,196,0.0,0.0,80,0.00,,,0.00,WeatherCatV1.24B11,2014-07-11 00:34:00,
2014-07-10 20:39:00,59.6,53.8,30.12,SSW,196,0.0,0.0,81,0.00,,,0.00,WeatherCatV1.24B11,2014-07-11 00:39:00,
2014-07-10 20:44:00,59.0,53.2,30.13,SSW,196,0.0,0.0,81,0.00,,,0.00,WeatherCatV1.24B11,2014-07-11 00:44:00,
2014-07-10 20:49:00,58.9,53.4,30.13,SSW,196,0.0,1.0,82,0.00,,,0.00,WeatherCatV1.24B11,2014-07-11 00:49:00,
2014-07-10 20:54:00,58.2,52.7,30.13,SSW,196,0.0,0.0,82,0.00,,,0.00,WeatherCatV1.24B11,2014-07-11 00:54:00,
2014-07-10 20:59:00,57.8,52.7,30.14,SSW,196,0.0,0.0,83,0.00,,,0.00,WeatherCatV1.24B11,2014-07-11 00:59:00,
2014-07-10 21:04:00,57.5,52.7,30.13,SSW,196,0.0,0.0,84,0.00,,,0.00,WeatherCatV1.24B11,2014-07-11 01:04:00,
2014-07-10 21:09:00,57.1,52.0,30.14,SSW,196,0.0,0.0,83,0.00,,,0.00,WeatherCatV1.24B11,2014-07-11 01:09:00,
2014-07-10 21:14:00,56.7,51.9,30.14,SSW,196,0.0,0.0,84,0.00,,,0.00,WeatherCatV1.24B11,2014-07-11 01:14:00,
2014-07-10 21:19:00,56.4,51.9,30.15,SSW,196,0.0,0.0,85,0.00,,,0.00,WeatherCatV1.24B11,2014-07-11 01:19:00,
2014-07-10 21:24:00,56.2,52.1,30.15,SSW,196,0.0,0.0,86,0.00,,,0.00,WeatherCatV1.24B11,2014-07-11 01:24:00,
2014-07-10 21:29:00,55.8,51.7,30.15,SSW,196,0.0,0.0,86,0.00,,,0.00,WeatherCatV1.24B11,2014-07-11 01:29:00,
2014-07-10 21:34:00,55.6,51.5,30.15,SSW,197,0.0,0.0,86,0.00,,,0.00,WeatherCatV1.24B11,2014-07-11 01:34:00,
2014-07-10 21:39:00,55.4,51.3,30.15,SSW,196,0.0,1.0,86,0.00,,,0.00,WeatherCatV1.24B11,2014-07-11 01:39:00,
2014-07-10 21:44:00,55.2,51.1,30.15,SSW,197,0.0,1.0,86,0.00,,,0.00,WeatherCatV1.24B11,2014-07-11 01:44:00,
2014-07-10 21:49:00,55.1,51.3,30.15,SSW,196,0.0,0.0,87,0.00,,,0.00,WeatherCatV1.24B11,2014-07-11 01:49:00,
2014-07-10 21:54:00,55.0,51.2,30.16,SSW,197,0.0,0.0,87,0.00,,,0.00,WeatherCatV1.24B11,2014-07-11 01:54:00,
2014-07-10 21:59:00,54.8,51.0,30.16,SSW,197,0.0,0.0,87,0.00,,,0.00,WeatherCatV1.24B11,2014-07-11 01:59:00,